Time;durP1;ratioP1;P1;durP2;ratioP2;P2;SDS_P1;SDS_P2;PMS_P1;PMS_P2;Temp;Humidity;BMP_temperature;BMP_pressure;BME280_temperature;BME280_humidity;BME280_pressure;Samples;Min_cycle;Max_cycle;Signal;HPM_P1;HPM_P2
2021/05/14 00:02:27;;;;;;;17.93;7.27;;;;;;;12.98;71.61;100702.22;1838139;78;21680;-73
2021/05/14 00:05:01;;;;;;;13.25;5.95;;;;;;;12.94;71.63;100704.69;1837321;78;21226;-73
2021/05/14 00:07:34;;;;;;;13.32;7.20;;;;;;;12.90;71.59;100703.55;1766357;81;21203;-73
2021/05/14 00:10:07;;;;;;;12.98;7.30;;;;;;;12.83;71.59;100708.56;1837373;78;21384;-73
2021/05/14 00:12:40;;;;;;;9.78;5.90;;;;;;;12.79;71.73;100707.45;1766416;81;21242;-71
2021/05/14 00:15:13;;;;;;;16.23;6.67;;;;;;;12.82;71.79;100715.25;1836524;78;21387;-68
2021/05/14 00:17:46;;;;;;;11.50;6.72;;;;;;;12.85;71.66;100722.23;1836921;78;21336;-72
2021/05/14 00:20:19;;;;;;;14.60;6.47;;;;;;;12.85;71.45;100721.65;1837634;78;21159;-73
2021/05/14 00:22:52;;;;;;;9.45;5.83;;;;;;;12.86;71.35;100717.78;1838273;78;21693;-71
2021/05/14 00:25:24;;;;;;;15.28;5.17;;;;;;;12.85;71.19;100719.44;1838347;78;21313;-73
2021/05/14 00:27:57;;;;;;;9.95;5.25;;;;;;;12.81;71.14;100717.76;1838283;78;21320;-72
2021/05/14 00:30:30;;;;;;;14.25;5.53;;;;;;;12.76;71.17;100707.99;1838593;78;21301;-71
2021/05/14 00:33:02;;;;;;;13.57;5.70;;;;;;;12.73;71.32;100718.84;1767381;81;21478;-72
2021/05/14 00:35:35;;;;;;;17.57;5.75;;;;;;;12.75;71.30;100726.37;1838347;78;21375;-74
2021/05/14 00:38:07;;;;;;;12.55;5.97;;;;;;;12.75;71.15;100716.61;1838414;78;21795;-73
2021/05/14 00:40:39;;;;;;;14.30;5.50;;;;;;;12.73;71.07;100708.55;1838230;78;21159;-73
2021/05/14 00:43:12;;;;;;;16.65;6.03;;;;;;;12.70;71.01;100702.13;1838391;78;21746;-73
2021/05/14 00:45:45;;;;;;;11.05;5.40;;;;;;;12.66;70.98;100688.45;1838392;78;21344;-72
2021/05/14 00:48:17;;;;;;;13.03;5.72;;;;;;;12.61;71.09;100682.89;1838194;78;21328;-72
2021/05/14 00:50:50;;;;;;;12.40;5.67;;;;;;;12.60;71.14;100690.94;1767261;81;21333;-71
2021/05/14 00:53:22;;;;;;;11.05;6.05;;;;;;;12.59;71.06;100699.02;1838406;78;21869;-73
2021/05/14 00:55:55;;;;;;;19.95;7.20;;;;;;;12.53;71.10;100700.11;1767148;81;21328;-73
2021/05/14 00:58:27;;;;;;;14.87;5.97;;;;;;;12.50;71.17;100700.67;1838272;78;21305;-74
2021/05/14 01:01:00;;;;;;;18.48;5.62;;;;;;;12.46;71.19;100708.45;1838595;78;21830;-72
2021/05/14 01:03:33;;;;;;;9.85;5.03;;;;;;;12.39;71.24;100710.09;1838654;78;21395;-71
2021/05/14 01:06:05;;;;;;;12.23;5.33;;;;;;;12.33;71.41;100708.39;1838560;78;21194;-72
2021/05/14 01:08:38;;;;;;;13.25;6.35;;;;;;;12.29;71.64;100703.08;1838205;78;21186;-73
2021/05/14 01:11:10;;;;;;;10.90;5.42;;;;;;;12.33;71.71;100705.61;1838173;78;21923;-74
2021/05/14 01:13:44;;;;;;;16.57;5.85;;;;;;;12.38;71.71;100692.26;1838312;78;21163;-74
2021/05/14 01:16:17;;;;;;;15.68;6.05;;;;;;;12.39;71.63;100686.42;1838547;78;21321;-72
2021/05/14 01:18:49;;;;;;;18.07;6.40;;;;;;;12.37;71.54;100690.05;1767277;81;21866;-74
2021/05/14 01:21:22;;;;;;;15.20;5.90;;;;;;;12.33;71.57;100695.86;1838472;78;21179;-74
2021/05/14 01:23:55;;;;;;;12.98;5.20;;;;;;;12.32;71.74;100683.59;1838282;78;21321;-73
2021/05/14 01:26:28;;;;;;;13.50;6.40;;;;;;;12.33;71.83;100682.48;1838364;78;21316;-75
2021/05/14 01:29:02;;;;;;;12.65;6.30;;;;;;;12.35;71.99;100663.58;1838398;78;21191;-71
2021/05/14 01:31:35;;;;;;;14.83;6.50;;;;;;;12.37;72.11;100659.41;1838253;78;21822;-70
2021/05/14 01:34:08;;;;;;;14.78;6.28;;;;;;;12.42;72.17;100663.59;1838472;78;21799;-73
2021/05/14 01:36:41;;;;;;;15.05;6.45;;;;;;;12.43;72.15;100669.46;1838424;78;21380;-74
2021/05/14 01:39:23;;;;;;;12.80;7.08;;;;;;;12.41;72.15;100680.02;1767263;81;21218;-73
2021/05/14 01:41:54;;;;;;;11.30;5.33;;;;;;;12.44;72.25;100667.50;1838258;78;21720;-76
2021/05/14 01:44:28;;;;;;;12.63;5.65;;;;;;;12.44;72.20;100654.97;1831694;78;21174;-71
2021/05/14 01:47:00;;;;;;;15.53;6.90;;;;;;;12.45;72.34;100673.34;1767123;81;21340;-70
2021/05/14 01:49:33;;;;;;;25.07;6.97;;;;;;;12.39;72.47;100676.67;1838689;77;21734;-70
2021/05/14 01:52:07;;;;;;;12.75;5.90;;;;;;;12.39;72.58;100675.28;1838255;78;22072;-70
2021/05/14 01:54:39;;;;;;;17.10;6.53;;;;;;;12.40;72.69;100667.78;1767232;81;21250;-69
2021/05/14 01:57:12;;;;;;;10.68;6.22;;;;;;;12.43;72.78;100647.19;1819588;78;21368;-72
2021/05/14 01:59:44;;;;;;;17.45;6.42;;;;;;;12.49;72.81;100642.45;1805569;79;21360;-73
2021/05/14 02:02:19;;;;;;;17.98;6.75;;;;;;;12.51;72.85;100634.11;1805565;79;21182;-69
2021/05/14 02:04:51;;;;;;;16.42;5.80;;;;;;;12.53;72.81;100629.66;1805561;79;21874;-72
2021/05/14 02:07:24;;;;;;;12.50;5.92;;;;;;;12.52;72.87;100621.85;1805377;79;21375;-72
2021/05/14 02:09:57;;;;;;;11.80;6.03;;;;;;;12.54;72.97;100616.83;1822769;78;21317;-72
2021/05/14 02:12:30;;;;;;;10.72;5.92;;;;;;;12.56;73.08;100611.84;1838414;78;21317;-71
2021/05/14 02:15:02;;;;;;;16.20;7.80;;;;;;;12.57;73.19;100616.30;1838345;78;21857;-71
2021/05/14 02:17:36;;;;;;;18.77;7.92;;;;;;;12.65;73.25;100621.89;1767320;81;21377;-70
2021/05/14 02:20:10;;;;;;;14.98;6.58;;;;;;;12.70;73.26;100617.16;1838434;78;21163;-71
2021/05/14 02:22:43;;;;;;;27.80;6.47;;;;;;;12.71;73.18;100610.46;1764562;81;21190;-71
2021/05/14 02:25:16;;;;;;;17.40;6.63;;;;;;;12.73;73.22;100614.38;1805626;79;21400;-71
2021/05/14 02:27:48;;;;;;;14.63;7.45;;;;;;;12.73;73.29;100619.41;1805429;79;21356;-72
2021/05/14 02:30:21;;;;;;;13.32;6.00;;;;;;;12.78;73.38;100629.14;1805451;79;21376;-71
2021/05/14 02:32:54;;;;;;;13.62;6.55;;;;;;;12.81;73.27;100638.34;1805573;79;21363;-73
2021/05/14 02:35:26;;;;;;;17.25;7.60;;;;;;;12.81;73.36;100629.99;1805336;78;21415;-68
2021/05/14 02:37:59;;;;;;;15.50;7.35;;;;;;;12.79;73.48;100630.83;1805339;79;21320;-68
2021/05/14 02:40:31;;;;;;;11.68;6.78;;;;;;;12.83;73.56;100632.52;1805393;79;21313;-71
2021/05/14 02:43:04;;;;;;;13.98;6.55;;;;;;;12.82;73.72;100623.30;1805616;79;21834;-71
2021/05/14 02:45:37;;;;;;;18.90;7.30;;;;;;;12.87;73.86;100611.31;1805604;79;21380;-71
2021/05/14 02:48:09;;;;;;;15.78;7.33;;;;;;;12.93;73.79;100608.27;1805530;79;21826;-72
2021/05/14 02:50:42;;;;;;;18.95;7.97;;;;;;;13.00;73.72;100615.82;1807068;78;21313;-72
2021/05/14 02:53:14;;;;;;;14.20;6.47;;;;;;;13.01;73.75;100627.25;1819501;79;21316;-77
2021/05/14 02:55:47;;;;;;;16.97;7.30;;;;;;;13.05;73.82;100628.91;1781265;80;21245;-76
2021/05/14 02:58:20;;;;;;;21.75;6.75;;;;;;;13.03;73.83;100623.61;1763069;81;21179;-77
2021/05/14 03:00:52;;;;;;;18.90;6.83;;;;;;;13.02;74.06;100618.34;1750678;82;21411;-76
2021/05/14 03:03:25;;;;;;;17.92;6.95;;;;;;;13.04;74.04;100616.09;1750350;82;21364;-77
2021/05/14 03:05:59;;;;;;;16.23;6.75;;;;;;;13.07;74.08;100627.52;1763459;81;21344;-75
2021/05/14 03:08:31;;;;;;;15.05;6.70;;;;;;;13.12;74.17;100633.11;1750430;82;21826;-75
2021/05/14 03:11:04;;;;;;;24.75;8.18;;;;;;;13.16;74.47;100634.23;1750374;82;21846;-76
2021/05/14 03:13:37;;;;;;;23.40;8.00;;;;;;;13.23;74.53;100630.60;1766395;80;21195;-77
2021/05/14 03:16:09;;;;;;;26.42;8.15;;;;;;;13.35;74.42;100628.36;1772140;80;21399;-77
2021/05/14 03:18:42;;;;;;;22.63;8.53;;;;;;;13.46;74.20;100628.61;1756170;80;21747;-76
2021/05/14 03:21:15;;;;;;;18.95;8.25;;;;;;;13.56;74.06;100629.17;1781110;80;21217;-77
2021/05/14 03:23:47;;;;;;;29.25;8.43;;;;;;;13.62;74.06;100628.05;1779636;80;21348;-77
2021/05/14 03:26:21;;;;;;;26.00;7.60;;;;;;;13.69;74.11;100628.59;1781359;80;21183;-78
2021/05/14 03:28:54;;;;;;;24.95;8.48;;;;;;;13.81;74.13;100638.31;1751314;80;21336;-78
2021/05/14 03:31:28;;;;;;;20.30;7.62;;;;;;;13.93;74.07;100638.83;1781816;80;21372;-77
2021/05/14 03:34:02;;;;;;;19.70;8.28;;;;;;;14.07;73.94;100634.34;1781612;80;21332;-75
2021/05/14 03:36:34;;;;;;;15.93;7.15;;;;;;;14.18;73.61;100623.37;1781538;80;21324;-78
2021/05/14 03:39:10;;;;;;;16.57;7.42;;;;;;;14.28;73.32;100623.37;1781035;80;21189;-76
2021/05/14 03:41:48;;;;;;;18.52;7.30;;;;;;;14.40;73.17;100625.27;1770706;80;21850;-76
2021/05/14 03:44:19;;;;;;;17.00;7.40;;;;;;;14.49;73.18;100629.70;1763270;81;21400;-76
2021/05/14 03:46:52;;;;;;;21.75;8.33;;;;;;;14.58;73.18;100636.34;1763743;81;21266;-76
2021/05/14 03:49:25;;;;;;;19.27;8.05;;;;;;;14.67;73.12;100646.62;1768562;81;21352;-76
2021/05/14 03:51:57;;;;;;;20.27;8.50;;;;;;;14.76;72.80;100643.50;1767906;81;21337;-77
2021/05/14 03:54:31;;;;;;;18.70;7.12;;;;;;;14.84;72.62;100647.66;1762885;81;21389;-76
2021/05/14 03:57:04;;;;;;;10.68;7.55;;;;;;;14.86;72.50;100636.43;1762718;81;21321;-75
2021/05/14 03:59:39;;;;;;;10.77;6.43;;;;;;;14.91;72.36;100642.58;1763111;81;21329;-75
2021/05/14 04:02:12;;;;;;;17.62;7.05;;;;;;;14.94;72.57;100640.03;1767715;81;21186;-74
2021/05/14 04:04:45;;;;;;;18.30;7.70;;;;;;;15.00;72.74;100640.81;1774512;81;21194;-80
2021/05/14 04:07:21;;;;;;;16.70;8.28;;;;;;;15.09;72.96;100634.89;1745900;82;21886;-81
2021/05/14 04:10:11;;;;;;;97.82;11.40;;;;;;;15.20;72.90;100635.91;1737439;81;21827;-79
2021/05/14 04:15:13;;;;;;;14.35;6.25;;;;;;;15.43;72.69;100646.38;1775880;81;21175;-80
2021/05/14 04:17:46;;;;;;;11.85;6.10;;;;;;;15.60;72.71;100641.17;1777834;81;21333;-82
2021/05/14 04:20:19;;;;;;;17.43;6.10;;;;;;;15.83;72.23;100640.94;1776322;81;21795;-80
2021/05/14 04:22:54;;;;;;;15.03;6.60;;;;;;;16.18;72.21;100641.35;1753240;81;21431;-79
2021/05/14 04:25:58;;;;;;;15.88;6.58;;;;;;;16.68;70.80;100643.52;1743814;79;21237;-80
2021/05/14 04:28:23;;;;;;;10.65;5.67;;;;;;;17.15;68.70;100647.58;1665590;85;22019;-80
2021/05/14 04:30:59;;;;;;;11.78;6.33;;;;;;;17.68;67.14;100643.33;1708377;84;21194;-80
2021/05/14 04:33:34;;;;;;;11.65;5.45;;;;;;;18.15;65.87;100649.42;1696890;83;21355;-77
2021/05/14 04:36:07;;;;;;;9.40;3.55;;;;;;;18.69;64.55;100660.68;1708955;84;21249;-80
2021/05/14 04:38:39;;;;;;;8.80;3.72;;;;;;;19.30;62.54;100658.14;1709333;84;21281;-79
2021/05/14 04:41:12;;;;;;;6.53;2.90;;;;;;;19.92;60.97;100656.22;1696649;83;21826;-78
2021/05/14 04:43:47;;;;;;;7.53;2.98;;;;;;;20.44;58.27;100660.42;1685898;84;21395;-78
2021/05/14 04:46:22;;;;;;;8.20;2.05;;;;;;;20.82;56.66;100672.81;1695667;84;22068;-80
2021/05/14 04:48:56;;;;;;;13.78;3.35;;;;;;;21.12;55.35;100674.72;1707171;84;21210;-80
2021/05/14 04:51:29;;;;;;;11.40;3.98;;;;;;;21.60;56.74;100676.80;1695405;83;21324;-76
2021/05/14 04:54:06;;;;;;;;;;;;;;;21.99;53.29;100675.73;1714269;83;21304;-77
2021/05/14 04:56:39;;;;;;;7.87;3.35;;;;;;;22.23;51.98;100682.50;1721616;83;20235;-72
2021/05/14 04:59:11;;;;;;;6.35;2.77;;;;;;;22.46;51.77;100683.94;1696080;83;21355;-77
2021/05/14 05:01:44;;;;;;;14.45;2.80;;;;;;;22.88;51.20;100687.71;1707500;84;21292;-72
2021/05/14 05:04:18;;;;;;;12.35;3.95;;;;;;;23.25;50.50;100686.82;1706848;84;21861;-74
2021/05/14 05:06:50;;;;;;;8.33;3.47;;;;;;;23.75;50.74;100674.78;1703802;84;21348;-75
2021/05/14 05:09:23;;;;;;;13.65;3.85;;;;;;;24.29;49.51;100670.14;1695309;83;21745;-74
2021/05/14 05:11:56;;;;;;;8.23;3.10;;;;;;;24.75;48.82;100673.16;1707642;84;21716;-73
2021/05/14 05:14:30;;;;;;;8.28;3.30;;;;;;;25.07;46.92;100677.87;1695101;83;21252;-73
2021/05/14 05:17:03;;;;;;;;;;;;;;;25.37;45.99;100682.91;1710644;84;21222;-74
2021/05/14 05:19:35;;;;;;;7.42;2.40;;;;;;;25.33;44.63;100678.31;1707097;84;20276;-74
2021/05/14 05:22:09;;;;;;;10.25;2.98;;;;;;;24.96;44.55;100673.27;1695389;84;21936;-75
2021/05/14 05:24:42;;;;;;;7.95;2.87;;;;;;;24.68;45.46;100678.61;1708718;84;21290;-75
2021/05/14 05:27:15;;;;;;;8.88;2.75;;;;;;;24.84;45.67;100685.22;1695701;84;21472;-75
2021/05/14 05:29:48;;;;;;;13.95;3.00;;;;;;;25.14;44.51;100688.88;1701828;84;21241;-74
2021/05/14 05:32:21;;;;;;;12.73;2.53;;;;;;;25.50;43.72;100692.26;1701932;84;21209;-76
2021/05/14 05:34:53;;;;;;;8.43;3.50;;;;;;;25.70;44.04;100689.81;1701712;84;21206;-79
2021/05/14 05:37:26;;;;;;;9.08;3.25;;;;;;;25.80;43.59;100688.72;1701838;83;21266;-73
2021/05/14 05:39:58;;;;;;;20.53;3.63;;;;;;;25.86;42.97;100692.13;1701884;83;21261;-72
2021/05/14 05:42:31;;;;;;;11.73;2.67;;;;;;;25.91;42.99;100693.33;1701890;84;21211;-77
2021/05/14 05:45:04;;;;;;;13.15;3.33;;;;;;;25.96;42.71;100686.77;1701619;84;21679;-74
2021/05/14 05:47:37;;;;;;;6.55;2.87;;;;;;;26.06;42.41;100696.80;1701432;83;21249;-75
2021/05/14 05:50:10;;;;;;;14.68;3.15;;;;;;;26.16;42.33;100696.27;1701869;84;21269;-73
2021/05/14 05:52:42;;;;;;;17.48;3.67;;;;;;;26.24;42.26;100696.11;1701824;84;21273;-77
2021/05/14 05:55:15;;;;;;;7.90;2.62;;;;;;;26.43;41.76;100691.95;1701610;83;21201;-73
2021/05/14 05:57:47;;;;;;;8.33;2.77;;;;;;;26.51;41.49;100698.67;1701649;84;21266;-75
2021/05/14 06:00:20;;;;;;;10.53;2.83;;;;;;;26.44;41.27;100704.16;1701740;83;21206;-73
2021/05/14 06:02:53;;;;;;;9.50;2.70;;;;;;;26.56;41.45;100706.95;1701517;84;21824;-74
2021/05/14 06:05:25;;;;;;;7.50;3.40;;;;;;;26.57;41.42;100708.64;1701741;84;21721;-73
2021/05/14 06:07:58;;;;;;;9.80;3.33;;;;;;;26.57;41.25;100712.91;1701775;84;21691;-76
2021/05/14 06:10:31;;;;;;;6.60;2.37;;;;;;;26.58;41.46;100711.70;1701616;84;21250;-76
2021/05/14 06:13:05;;;;;;;;;;;;;;;26.54;41.19;100703.66;1704189;84;21261;-73
2021/05/14 06:15:37;;;;;;;10.88;2.95;;;;;;;26.18;41.71;100711.81;1701623;83;20549;-73
2021/05/14 06:18:18;;;;;;;6.78;2.58;;;;;;;26.13;42.45;100714.08;1701604;84;21763;-76
2021/05/14 06:20:51;;;;;;;11.50;2.65;;;;;;;26.34;41.89;100728.31;1701504;83;21257;-74
2021/05/14 06:23:24;;;;;;;10.53;3.27;;;;;;;26.35;42.06;100724.30;1701753;84;21191;-75
2021/05/14 06:25:57;;;;;;;8.75;2.50;;;;;;;26.39;42.04;100719.50;1706033;80;21896;-73
2021/05/14 06:28:30;;;;;;;10.58;2.17;;;;;;;26.39;41.87;100721.55;1706569;83;21224;-75
2021/05/14 06:31:04;;;;;;;9.10;2.42;;;;;;;26.15;41.86;100720.25;1706600;84;21380;-74
2021/05/14 06:33:36;;;;;;;5.80;2.45;;;;;;;25.82;42.77;100718.22;1742046;82;21376;-73
2021/05/14 06:36:11;;;;;;;15.00;2.75;;;;;;;25.60;43.35;100721.02;1742165;82;21407;-73
2021/05/14 06:38:43;;;;;;;8.58;3.22;;;;;;;25.65;43.75;100721.36;1742164;82;21218;-74
2021/05/14 06:41:16;;;;;;;8.20;2.42;;;;;;;25.78;43.48;100721.58;1742158;82;21332;-73
2021/05/14 06:43:50;;;;;;;7.70;2.83;;;;;;;25.86;43.71;100723.44;1742277;82;21325;-73
2021/05/14 06:46:23;;;;;;;12.07;2.72;;;;;;;25.94;43.41;100728.17;1742250;82;21254;-74
2021/05/14 06:48:56;;;;;;;9.78;3.22;;;;;;;25.97;43.52;100731.73;1741958;82;21400;-74
2021/05/14 06:51:31;;;;;;;9.15;2.33;;;;;;;26.10;43.55;100730.48;1741913;82;21472;-73
2021/05/14 06:54:03;;;;;;;12.98;3.17;;;;;;;26.13;43.71;100728.31;1742037;82;21246;-74
2021/05/14 06:56:36;;;;;;;9.10;2.90;;;;;;;26.15;43.22;100727.38;1742133;82;21337;-73
2021/05/14 06:59:09;;;;;;;12.15;2.98;;;;;;;26.14;43.00;100731.42;1742350;82;22181;-74
2021/05/14 07:01:41;;;;;;;5.40;2.35;;;;;;;25.87;43.39;100737.31;1742202;82;21324;-73
2021/05/14 07:04:15;;;;;;;17.42;3.55;;;;;;;25.68;44.04;100736.30;1742192;82;21336;-74
2021/05/14 07:06:49;;;;;;;9.53;3.22;;;;;;;25.46;44.52;100739.66;1741916;82;21182;-74
2021/05/14 07:09:21;;;;;;;13.78;2.58;;;;;;;25.28;44.86;100742.53;1742220;82;21337;-73
2021/05/14 07:11:55;;;;;;;8.58;2.45;;;;;;;25.18;44.71;100744.43;1742160;82;21827;-73
2021/05/14 07:14:36;;;;;;;11.10;2.47;;;;;;;25.18;44.71;100744.43;1742008;82;21332;-74
2021/05/14 07:17:48;;;;;;;12.78;2.60;;;;;;;25.09;44.90;100743.71;1741478;82;21230;-74
2021/05/14 07:20:22;;;;;;;30.65;3.52;;;;;;;24.82;45.68;100745.24;1742455;82;21298;-73
2021/05/14 07:22:55;;;;;;;14.55;2.92;;;;;;;24.59;46.10;100746.05;1742049;82;21332;-74
2021/05/14 07:25:28;;;;;;;8.45;2.80;;;;;;;24.31;46.86;100744.42;1742124;82;21877;-73
2021/05/14 07:28:00;;;;;;;10.30;2.80;;;;;;;24.09;47.53;100746.84;1742074;81;21855;-73
2021/05/14 07:30:33;;;;;;;10.93;2.40;;;;;;;23.90;47.92;100745.11;1742124;82;21826;-73
2021/05/14 07:33:08;;;;;;;23.20;4.58;;;;;;;23.84;47.98;100754.38;1742268;82;21953;-74
2021/05/14 07:35:41;;;;;;;11.25;2.98;;;;;;;23.88;48.18;100756.80;1742084;82;21401;-73
2021/05/14 07:38:24;;;;;;;9.48;3.30;;;;;;;24.06;48.02;100758.87;1741992;82;21329;-73
2021/05/14 07:40:53;;;;;;;6.08;2.83;;;;;;;24.22;47.54;100762.16;1741463;82;21882;-74
2021/05/14 07:43:34;;;;;;;8.65;2.98;;;;;;;24.27;47.37;100756.84;1739803;81;21759;-73
2021/05/14 07:46:16;;;;;;;9.95;2.95;;;;;;;24.19;47.50;100757.16;1741766;82;21411;-72
2021/05/14 07:49:07;;;;;;;;;;;;;;;;;;;;;
2021/05/14 07:51:51;;;;;;;11.68;3.45;;;;;;;24.02;48.07;100755.09;1740244;81;21246;-72
2021/05/14 07:54:22;;;;;;;11.73;3.98;;;;;;;23.90;48.18;100755.05;1741840;82;21336;-74
2021/05/14 07:57:02;;;;;;;8.33;3.40;;;;;;;23.76;48.63;100771.47;1739929;82;21404;-74
2021/05/14 07:59:38;;;;;;;12.43;2.90;;;;;;;23.61;48.91;100770.11;1740773;82;21357;-74
2021/05/14 08:02:16;;;;;;;7.50;3.92;;;;;;;23.37;49.55;100771.94;1741989;82;21858;-73
2021/05/14 08:04:50;;;;;;;9.75;3.75;;;;;;;23.23;50.04;100772.80;1741990;82;21408;-73
2021/05/14 08:07:23;;;;;;;18.23;4.33;;;;;;;23.21;50.55;100765.20;1742242;82;21399;-74
2021/05/14 08:09:57;;;;;;;11.43;3.85;;;;;;;23.20;50.55;100766.37;1742157;82;21210;-72
2021/05/14 08:12:38;;;;;;;12.45;3.87;;;;;;;23.17;50.68;100762.83;1739179;82;21332;-73
2021/05/14 08:15:28;;;;;;;8.65;3.55;;;;;;;23.15;51.12;100768.80;1741999;82;21380;-72
2021/05/14 08:18:01;;;;;;;8.88;3.12;;;;;;;23.26;50.97;100766.42;1721686;82;21333;-73
2021/05/14 08:20:33;;;;;;;8.75;2.85;;;;;;;23.29;50.95;100762.92;1742099;82;21353;-74
2021/05/14 08:23:07;;;;;;;8.93;3.62;;;;;;;23.28;50.99;100762.67;1742273;82;21676;-73
2021/05/14 08:25:42;;;;;;;9.88;3.35;;;;;;;23.22;51.03;100754.12;1741843;82;21385;-74
2021/05/14 08:28:24;;;;;;;9.75;4.00;;;;;;;23.27;51.28;100759.00;1741818;82;21345;-72
2021/05/14 08:31:07;;;;;;;10.32;3.08;;;;;;;23.36;50.85;100768.27;1741980;82;21174;-75
2021/05/14 08:33:41;;;;;;;12.28;3.37;;;;;;;23.39;50.46;100764.76;1741880;81;21333;-75
2021/05/14 08:39:35;;;;;;;9.68;3.47;;;;;;;23.38;50.72;100771.61;1735453;81;21194;-75
2021/05/14 08:42:15;;;;;;;11.70;3.47;;;;;;;23.38;50.84;100766.52;1741821;81;21352;-75
2021/05/14 08:44:55;;;;;;;11.88;3.45;;;;;;;23.43;50.75;100762.91;1733213;81;21337;-73
2021/05/14 08:47:27;;;;;;;22.60;4.80;;;;;;;23.50;50.59;100772.27;1742159;82;21416;-73
2021/05/14 08:50:05;;;;;;;12.83;3.37;;;;;;;23.52;50.45;100775.00;1742318;82;21692;-74
2021/05/14 08:52:49;;;;;;;15.45;3.45;;;;;;;23.54;50.28;100770.41;1741843;81;21573;-73
2021/05/14 08:55:41;;;;;;;8.65;3.55;;;;;;;23.56;50.51;100759.54;1741539;81;21764;-74
2021/05/14 08:58:15;;;;;;;9.00;3.67;;;;;;;23.51;50.47;100763.99;1742328;81;21731;-74
2021/05/14 09:00:47;;;;;;;19.20;6.12;;;;;;;23.42;50.44;100763.24;1742310;82;21206;-74
2021/05/14 09:03:20;;;;;;;9.97;4.20;;;;;;;23.30;50.76;100760.32;1742280;82;21194;-71
2021/05/14 09:05:53;;;;;;;10.43;3.75;;;;;;;23.25;51.10;100757.68;1742144;82;21877;-73
2021/05/14 09:08:31;;;;;;;12.30;4.00;;;;;;;23.27;51.25;100759.00;1742324;82;21337;-72
2021/05/14 09:11:05;;;;;;;8.48;3.67;;;;;;;23.25;50.94;100762.77;1741995;82;21332;-74
2021/05/14 09:13:39;;;;;;;6.77;3.30;;;;;;;23.25;50.33;100756.27;1742445;82;21699;-75
2021/05/14 09:16:11;;;;;;;10.15;4.05;;;;;;;23.25;50.33;100756.27;1741976;81;21639;-77
2021/05/14 09:18:44;;;;;;;9.27;3.20;;;;;;;23.11;51.06;100757.89;1742436;82;21772;-76
2021/05/14 09:21:19;;;;;;;8.47;3.93;;;;;;;22.94;51.69;100757.16;1697611;82;21385;-75
2021/05/14 09:23:52;;;;;;;7.90;3.52;;;;;;;22.73;52.29;100761.94;1721906;82;21186;-76
2021/05/14 09:26:26;;;;;;;11.33;3.47;;;;;;;22.61;52.92;100749.90;1696981;82;21830;-72
2021/05/14 09:28:58;;;;;;;7.90;3.22;;;;;;;22.68;53.21;100753.62;1702287;83;21347;-75
2021/05/14 09:31:31;;;;;;;11.33;3.85;;;;;;;22.69;52.62;100758.12;1712514;84;21335;-76
2021/05/14 09:34:04;;;;;;;5.70;3.63;;;;;;;22.65;52.92;100754.30;1712749;84;21340;-76
2021/05/14 09:36:37;;;;;;;10.25;3.80;;;;;;;22.68;52.96;100749.39;1712597;84;22005;-75
2021/05/14 09:39:11;;;;;;;6.97;3.35;;;;;;;22.65;52.93;100755.71;1712683;84;21347;-75
2021/05/14 09:41:47;;;;;;;9.43;3.95;;;;;;;22.61;52.89;100754.75;1712465;84;21952;-75
2021/05/14 09:44:21;;;;;;;18.25;3.65;;;;;;;22.46;52.98;100756.70;1712245;84;21301;-77
2021/05/14 09:46:58;;;;;;;12.37;4.30;;;;;;;22.19;53.12;100749.41;1712380;84;21750;-75
2021/05/14 09:49:38;;;;;;;9.25;3.42;;;;;;;21.96;54.18;100758.45;1712339;84;21760;-76
2021/05/14 09:52:08;;;;;;;6.92;3.62;;;;;;;21.82;54.43;100763.45;1712210;84;21719;-75
2021/05/14 09:54:44;;;;;;;7.80;3.30;;;;;;;21.71;54.71;100763.54;1712219;84;21379;-74
2021/05/14 10:00:06;;;;;;;11.60;3.65;;;;;;;21.60;55.44;100770.08;1712216;84;21337;-74
2021/05/14 10:02:41;;;;;;;15.93;4.08;;;;;;;21.70;55.41;100762.69;1712375;84;21174;-72
2021/05/14 10:05:15;;;;;;;7.60;2.83;;;;;;;21.81;54.94;100764.59;1712189;84;21328;-73
2021/05/14 10:07:49;;;;;;;7.90;3.40;;;;;;;21.85;54.84;100770.69;1712328;83;21185;-72
2021/05/14 10:10:24;;;;;;;8.95;3.37;;;;;;;21.92;54.28;100765.92;1712387;84;21833;-74
2021/05/14 10:12:56;;;;;;;8.93;3.47;;;;;;;21.89;53.73;100760.95;1712519;84;21265;-72
2021/05/14 10:15:32;;;;;;;7.50;2.83;;;;;;;21.82;54.06;100762.05;1712308;84;21958;-74
2021/05/14 10:18:06;;;;;;;;;;;;;;;21.73;53.32;100759.22;1714840;84;21313;-74
2021/05/14 10:20:40;;;;;;;11.53;3.25;;;;;;;21.62;53.36;100763.50;1712421;84;20535;-76
2021/05/14 10:23:15;;;;;;;8.00;2.87;;;;;;;21.52;53.98;100763.81;1712399;84;21874;-81
2021/05/14 10:25:57;;;;;;;7.97;2.45;;;;;;;21.52;54.02;100768.66;1711116;84;21916;-75
2021/05/14 10:28:30;;;;;;;8.80;3.15;;;;;;;21.47;53.57;100758.32;1712060;84;21797;-80
2021/05/14 10:31:08;;;;;;;13.65;2.55;;;;;;;21.46;53.33;100759.48;1739530;81;21970;-76
2021/05/14 10:33:48;;;;;;;3.62;1.95;;;;;;;21.51;52.79;100762.16;1742043;82;21399;-79
2021/05/14 10:36:32;;;;;;;4.35;2.20;;;;;;;21.55;52.19;100767.98;1742181;82;21206;-79
2021/05/14 10:39:20;;;;;;;8.30;2.40;;;;;;;21.55;52.21;100769.39;1742343;82;21341;-77
2021/05/14 10:42:01;;;;;;;5.55;1.95;;;;;;;21.55;51.26;100768.82;1742097;82;21724;-77
2021/05/14 10:44:53;;;;;;;6.78;2.25;;;;;;;21.50;51.55;100770.96;1742135;82;21329;-78
2021/05/14 10:47:31;;;;;;;8.00;3.10;;;;;;;21.50;51.47;100776.05;1742250;82;21348;-74
2021/05/14 10:50:07;;;;;;;6.03;2.27;;;;;;;21.49;51.44;100784.84;1742269;82;21824;-76
2021/05/14 10:53:18;;;;;;;8.23;2.17;;;;;;;21.46;51.32;100786.94;1699976;82;21253;-78
2021/05/14 10:55:51;;;;;;;7.45;2.05;;;;;;;21.36;50.84;100777.35;1742103;82;21306;-77
2021/05/14 10:59:05;;;;;;;7.47;2.10;;;;;;;21.18;51.78;100774.23;1742278;82;21199;-74
2021/05/14 11:01:43;;;;;;;8.98;2.37;;;;;;;21.17;52.24;100778.23;1719285;83;21423;-75
2021/05/14 11:04:21;;;;;;;8.88;1.98;;;;;;;21.21;52.07;100779.25;1736929;82;21353;-74
2021/05/14 11:06:55;;;;;;;6.17;1.75;;;;;;;21.25;52.17;100768.94;1741937;82;21203;-74
2021/05/14 11:09:28;;;;;;;7.45;2.10;;;;;;;21.30;51.77;100781.50;1741944;82;21767;-72
2021/05/14 11:12:07;;;;;;;7.00;2.22;;;;;;;21.32;51.55;100778.59;1742002;82;21255;-74
2021/05/14 11:14:50;;;;;;;8.85;2.55;;;;;;;21.29;51.79;100780.68;1741990;82;21206;-74
2021/05/14 11:17:22;;;;;;;6.78;2.80;;;;;;;21.25;52.05;100784.47;1742041;82;21811;-73
2021/05/14 11:19:55;;;;;;;6.25;2.47;;;;;;;21.23;52.21;100781.16;1742218;82;21348;-74
2021/05/14 11:22:39;;;;;;;8.83;2.35;;;;;;;21.21;52.15;100782.07;1742030;82;21365;-74
2021/05/14 11:25:21;;;;;;;14.50;2.80;;;;;;;21.23;52.33;100789.06;1742129;82;21897;-73
2021/05/14 11:27:56;;;;;;;9.43;2.30;;;;;;;21.20;52.40;100800.16;1741919;82;21395;-73
2021/05/14 11:30:29;;;;;;;6.80;2.27;;;;;;;21.16;52.68;100783.63;1741906;82;21332;-72
2021/05/14 11:33:02;;;;;;;6.23;2.03;;;;;;;21.14;52.87;100792.99;1740408;81;21325;-72
2021/05/14 11:35:34;;;;;;;7.03;2.20;;;;;;;21.14;52.34;100781.70;1743969;81;21305;-71
2021/05/14 11:38:06;;;;;;;5.42;1.87;;;;;;;21.14;52.39;100785.94;1691678;82;21340;-72
2021/05/14 11:40:42;;;;;;;14.58;3.12;;;;;;;21.16;52.96;100792.92;1745845;81;21396;-73
2021/05/14 11:43:14;;;;;;;7.45;2.10;;;;;;;21.12;53.00;100797.59;1726930;83;21927;-74
2021/05/14 11:45:49;;;;;;;4.33;2.05;;;;;;;21.07;52.60;100792.64;1726477;83;21336;-72
2021/05/14 11:48:22;;;;;;;;;;;;;;;21.03;52.59;100785.41;1729982;83;21241;-73
2021/05/14 11:50:58;;;;;;;7.85;2.20;;;;;;;20.99;52.49;100775.95;1727715;83;20650;-73
2021/05/14 11:53:31;;;;;;;7.28;2.33;;;;;;;20.95;52.87;100783.41;1727419;83;21333;-74
2021/05/14 11:56:05;;;;;;;6.17;2.22;;;;;;;20.93;53.24;100759.47;1727318;83;21198;-73
2021/05/14 11:58:39;;;;;;;7.78;2.60;;;;;;;20.98;53.64;100767.80;1727558;83;21333;-74
2021/05/14 12:01:12;;;;;;;9.98;3.37;;;;;;;21.03;53.69;100756.36;1727286;83;21340;-73
2021/05/14 12:03:46;;;;;;;6.95;3.40;;;;;;;21.08;53.71;100756.21;1727410;83;21340;-75
2021/05/14 12:06:18;;;;;;;16.40;3.42;;;;;;;21.15;53.64;100756.55;1727307;83;21349;-74